<?xml version="1.0" encoding="UTF-8" standalone="no" ?>
<gpx xmlns="http://www.topografix.com/GPX/1/1" xmlns:xsi="http://www.w3.org/2001/XMLSchema-instance" xsi:schemaLocation="http://www.topografix.com/GPX/1/1 http://www.topografix.com/GPX/1/1/gpx.xsd" version="1.1" creator="VisuGPX - https://www.visugpx.com">
  <metadata>
    <name>Course à pied le midi</name>
  </metadata>
  <trk>
    <name><![CDATA[Course à pied le midi_1]]></name>
    <trkseg>
      <trkpt lat="48.65201" lon="7.28932">
        <ele>667.9</ele>
        <time>2024-01-27T10:34:36Z</time>
      </trkpt>
      <trkpt lat="48.65209" lon="7.28907">
        <ele>667.1</ele>
        <time>2024-01-27T10:34:46Z</time>
      </trkpt>
      <trkpt lat="48.65214" lon="7.28878">
        <ele>666.2</ele>
        <time>2024-01-27T10:34:55Z</time>
      </trkpt>
      <trkpt lat="48.65223" lon="7.28852">
        <ele>665</ele>
        <time>2024-01-27T10:35:04Z</time>
      </trkpt>
      <trkpt lat="48.65236" lon="7.28831">
        <ele>663.7</ele>
        <time>2024-01-27T10:35:12Z</time>
      </trkpt>
      <trkpt lat="48.6525" lon="7.28811">
        <ele>662.2</ele>
        <time>2024-01-27T10:35:19Z</time>
      </trkpt>
      <trkpt lat="48.65267" lon="7.28793">
        <ele>660.6</ele>
        <time>2024-01-27T10:35:26Z</time>
      </trkpt>
      <trkpt lat="48.65283" lon="7.28774">
        <ele>659.4</ele>
        <time>2024-01-27T10:35:32Z</time>
      </trkpt>
      <trkpt lat="48.653" lon="7.28755">
        <ele>658.6</ele>
        <time>2024-01-27T10:35:38Z</time>
      </trkpt>
      <trkpt lat="48.65316" lon="7.28737">
        <ele>658</ele>
        <time>2024-01-27T10:35:45Z</time>
      </trkpt>
      <trkpt lat="48.65333" lon="7.28723">
        <ele>657.2</ele>
        <time>2024-01-27T10:35:52Z</time>
      </trkpt>
      <trkpt lat="48.65349" lon="7.28708">
        <ele>656.2</ele>
        <time>2024-01-27T10:35:58Z</time>
      </trkpt>
      <trkpt lat="48.65366" lon="7.2869">
        <ele>655</ele>
        <time>2024-01-27T10:36:05Z</time>
      </trkpt>
      <trkpt lat="48.65383" lon="7.28676">
        <ele>653.8</ele>
        <time>2024-01-27T10:36:11Z</time>
      </trkpt>
      <trkpt lat="48.65401" lon="7.28664">
        <ele>652.4</ele>
        <time>2024-01-27T10:36:17Z</time>
      </trkpt>
      <trkpt lat="48.65419" lon="7.28648">
        <ele>650.9</ele>
        <time>2024-01-27T10:36:24Z</time>
      </trkpt>
      <trkpt lat="48.65437" lon="7.28641">
        <ele>649.4</ele>
        <time>2024-01-27T10:36:30Z</time>
      </trkpt>
      <trkpt lat="48.65454" lon="7.2863">
        <ele>647.8</ele>
        <time>2024-01-27T10:36:35Z</time>
      </trkpt>
      <trkpt lat="48.65471" lon="7.2861">
        <ele>645.8</ele>
        <time>2024-01-27T10:36:41Z</time>
      </trkpt>
      <trkpt lat="48.65487" lon="7.28597">
        <ele>644</ele>
        <time>2024-01-27T10:36:46Z</time>
      </trkpt>
      <trkpt lat="48.65505" lon="7.28589">
        <ele>642.2</ele>
        <time>2024-01-27T10:36:52Z</time>
      </trkpt>
      <trkpt lat="48.65523" lon="7.2858">
        <ele>640.6</ele>
        <time>2024-01-27T10:36:59Z</time>
      </trkpt>
      <trkpt lat="48.65544" lon="7.28576">
        <ele>640.2</ele>
        <time>2024-01-27T10:37:06Z</time>
      </trkpt>
      <trkpt lat="48.65562" lon="7.28589">
        <ele>639.3</ele>
        <time>2024-01-27T10:37:14Z</time>
      </trkpt>
      <trkpt lat="48.65578" lon="7.28603">
        <ele>638.2</ele>
        <time>2024-01-27T10:37:20Z</time>
      </trkpt>
      <trkpt lat="48.65596" lon="7.28614">
        <ele>636.9</ele>
        <time>2024-01-27T10:37:28Z</time>
      </trkpt>
      <trkpt lat="48.65614" lon="7.28627">
        <ele>635.5</ele>
        <time>2024-01-27T10:37:35Z</time>
      </trkpt>
      <trkpt lat="48.65632" lon="7.28634">
        <ele>634</ele>
        <time>2024-01-27T10:37:40Z</time>
      </trkpt>
      <trkpt lat="48.65653" lon="7.28637">
        <ele>633.1</ele>
        <time>2024-01-27T10:37:47Z</time>
      </trkpt>
      <trkpt lat="48.65672" lon="7.28642">
        <ele>632.9</ele>
        <time>2024-01-27T10:37:53Z</time>
      </trkpt>
      <trkpt lat="48.6569" lon="7.28651">
        <ele>633.1</ele>
        <time>2024-01-27T10:37:59Z</time>
      </trkpt>
      <trkpt lat="48.65708" lon="7.28657">
        <ele>633.2</ele>
        <time>2024-01-27T10:38:05Z</time>
      </trkpt>
      <trkpt lat="48.65725" lon="7.2867">
        <ele>633.2</ele>
        <time>2024-01-27T10:38:12Z</time>
      </trkpt>
      <trkpt lat="48.65741" lon="7.28687">
        <ele>633</ele>
        <time>2024-01-27T10:38:18Z</time>
      </trkpt>
      <trkpt lat="48.65758" lon="7.287">
        <ele>632.6</ele>
        <time>2024-01-27T10:38:24Z</time>
      </trkpt>
      <trkpt lat="48.65775" lon="7.28709">
        <ele>632.1</ele>
        <time>2024-01-27T10:38:30Z</time>
      </trkpt>
      <trkpt lat="48.65791" lon="7.28726">
        <ele>631.6</ele>
        <time>2024-01-27T10:38:36Z</time>
      </trkpt>
      <trkpt lat="48.65806" lon="7.28749">
        <ele>631</ele>
        <time>2024-01-27T10:38:42Z</time>
      </trkpt>
      <trkpt lat="48.65817" lon="7.28772">
        <ele>630.4</ele>
        <time>2024-01-27T10:38:48Z</time>
      </trkpt>
      <trkpt lat="48.65832" lon="7.28788">
        <ele>628.8</ele>
        <time>2024-01-27T10:38:54Z</time>
      </trkpt>
      <trkpt lat="48.65851" lon="7.28803">
        <ele>627.1</ele>
        <time>2024-01-27T10:39:00Z</time>
      </trkpt>
      <trkpt lat="48.65867" lon="7.28818">
        <ele>625.4</ele>
        <time>2024-01-27T10:39:07Z</time>
      </trkpt>
      <trkpt lat="48.65884" lon="7.28831">
        <ele>624.1</ele>
        <time>2024-01-27T10:39:14Z</time>
      </trkpt>
      <trkpt lat="48.65901" lon="7.28844">
        <ele>623.4</ele>
        <time>2024-01-27T10:39:20Z</time>
      </trkpt>
      <trkpt lat="48.65916" lon="7.2886">
        <ele>622.4</ele>
        <time>2024-01-27T10:39:26Z</time>
      </trkpt>
      <trkpt lat="48.65932" lon="7.2888">
        <ele>621.2</ele>
        <time>2024-01-27T10:39:34Z</time>
      </trkpt>
      <trkpt lat="48.65945" lon="7.28902">
        <ele>620.4</ele>
        <time>2024-01-27T10:39:40Z</time>
      </trkpt>
      <trkpt lat="48.65962" lon="7.28918">
        <ele>619.8</ele>
        <time>2024-01-27T10:39:47Z</time>
      </trkpt>
      <trkpt lat="48.65982" lon="7.28924">
        <ele>619.6</ele>
        <time>2024-01-27T10:39:54Z</time>
      </trkpt>
      <trkpt lat="48.65999" lon="7.28934">
        <ele>620.1</ele>
        <time>2024-01-27T10:40:01Z</time>
      </trkpt>
      <trkpt lat="48.66018" lon="7.28944">
        <ele>620.2</ele>
        <time>2024-01-27T10:40:08Z</time>
      </trkpt>
      <trkpt lat="48.66035" lon="7.28953">
        <ele>620</ele>
        <time>2024-01-27T10:40:15Z</time>
      </trkpt>
      <trkpt lat="48.66054" lon="7.28962">
        <ele>619.1</ele>
        <time>2024-01-27T10:40:20Z</time>
      </trkpt>
      <trkpt lat="48.66072" lon="7.28974">
        <ele>617.2</ele>
        <time>2024-01-27T10:40:26Z</time>
      </trkpt>
      <trkpt lat="48.66088" lon="7.28989">
        <ele>615.2</ele>
        <time>2024-01-27T10:40:31Z</time>
      </trkpt>
      <trkpt lat="48.66103" lon="7.29004">
        <ele>613.1</ele>
        <time>2024-01-27T10:40:36Z</time>
      </trkpt>
      <trkpt lat="48.66118" lon="7.29023">
        <ele>611</ele>
        <time>2024-01-27T10:40:42Z</time>
      </trkpt>
      <trkpt lat="48.66133" lon="7.2904">
        <ele>608.9</ele>
        <time>2024-01-27T10:40:47Z</time>
      </trkpt>
      <trkpt lat="48.6615" lon="7.29054">
        <ele>607.4</ele>
        <time>2024-01-27T10:40:53Z</time>
      </trkpt>
      <trkpt lat="48.66168" lon="7.29065">
        <ele>606.3</ele>
        <time>2024-01-27T10:40:59Z</time>
      </trkpt>
      <trkpt lat="48.66184" lon="7.29081">
        <ele>605.2</ele>
        <time>2024-01-27T10:41:04Z</time>
      </trkpt>
      <trkpt lat="48.662" lon="7.29102">
        <ele>603.4</ele>
        <time>2024-01-27T10:41:10Z</time>
      </trkpt>
      <trkpt lat="48.66213" lon="7.29121">
        <ele>601.6</ele>
        <time>2024-01-27T10:41:15Z</time>
      </trkpt>
      <trkpt lat="48.66228" lon="7.29139">
        <ele>599.7</ele>
        <time>2024-01-27T10:41:20Z</time>
      </trkpt>
      <trkpt lat="48.66239" lon="7.29162">
        <ele>598.1</ele>
        <time>2024-01-27T10:41:26Z</time>
      </trkpt>
      <trkpt lat="48.66251" lon="7.29189">
        <ele>597.1</ele>
        <time>2024-01-27T10:41:32Z</time>
      </trkpt>
      <trkpt lat="48.66252" lon="7.29195">
        <ele>596.8</ele>
        <time>2024-01-27T10:41:36Z</time>
      </trkpt>
      <trkpt lat="48.66245" lon="7.29194">
        <ele>596.6</ele>
        <time>2024-01-27T10:41:40Z</time>
      </trkpt>
      <trkpt lat="48.66243" lon="7.29222">
        <ele>596</ele>
        <time>2024-01-27T10:41:50Z</time>
      </trkpt>
      <trkpt lat="48.66244" lon="7.29253">
        <ele>595.3</ele>
        <time>2024-01-27T10:42:00Z</time>
      </trkpt>
      <trkpt lat="48.66247" lon="7.2928">
        <ele>594.4</ele>
        <time>2024-01-27T10:42:07Z</time>
      </trkpt>
      <trkpt lat="48.66251" lon="7.29288">
        <ele>594.2</ele>
        <time>2024-01-27T10:42:10Z</time>
      </trkpt>
      <trkpt lat="48.66255" lon="7.29293">
        <ele>594</ele>
        <time>2024-01-27T10:42:13Z</time>
      </trkpt>
      <trkpt lat="48.66266" lon="7.29293">
        <ele>593.5</ele>
        <time>2024-01-27T10:42:19Z</time>
      </trkpt>
      <trkpt lat="48.6628" lon="7.29307">
        <ele>593</ele>
        <time>2024-01-27T10:42:27Z</time>
      </trkpt>
      <trkpt lat="48.66293" lon="7.29331">
        <ele>592.4</ele>
        <time>2024-01-27T10:42:35Z</time>
      </trkpt>
      <trkpt lat="48.66307" lon="7.29348">
        <ele>591.4</ele>
        <time>2024-01-27T10:42:43Z</time>
      </trkpt>
      <trkpt lat="48.66322" lon="7.29368">
        <ele>590.4</ele>
        <time>2024-01-27T10:42:50Z</time>
      </trkpt>
      <trkpt lat="48.66334" lon="7.29392">
        <ele>589.6</ele>
        <time>2024-01-27T10:42:56Z</time>
      </trkpt>
      <trkpt lat="48.66348" lon="7.29411">
        <ele>588.9</ele>
        <time>2024-01-27T10:43:02Z</time>
      </trkpt>
      <trkpt lat="48.66363" lon="7.29433">
        <ele>588.3</ele>
        <time>2024-01-27T10:43:08Z</time>
      </trkpt>
      <trkpt lat="48.66378" lon="7.2945">
        <ele>587.7</ele>
        <time>2024-01-27T10:43:14Z</time>
      </trkpt>
      <trkpt lat="48.66391" lon="7.29472">
        <ele>586.6</ele>
        <time>2024-01-27T10:43:20Z</time>
      </trkpt>
      <trkpt lat="48.66405" lon="7.29494">
        <ele>585.6</ele>
        <time>2024-01-27T10:43:27Z</time>
      </trkpt>
      <trkpt lat="48.6642" lon="7.29515">
        <ele>585.1</ele>
        <time>2024-01-27T10:43:35Z</time>
      </trkpt>
      <trkpt lat="48.66437" lon="7.29525">
        <ele>584.6</ele>
        <time>2024-01-27T10:43:41Z</time>
      </trkpt>
      <trkpt lat="48.66453" lon="7.29543">
        <ele>583.7</ele>
        <time>2024-01-27T10:43:47Z</time>
      </trkpt>
      <trkpt lat="48.66466" lon="7.29566">
        <ele>582.2</ele>
        <time>2024-01-27T10:43:54Z</time>
      </trkpt>
      <trkpt lat="48.66479" lon="7.29586">
        <ele>580.6</ele>
        <time>2024-01-27T10:44:01Z</time>
      </trkpt>
      <trkpt lat="48.66495" lon="7.29606">
        <ele>578.4</ele>
        <time>2024-01-27T10:44:08Z</time>
      </trkpt>
      <trkpt lat="48.66509" lon="7.29623">
        <ele>576.2</ele>
        <time>2024-01-27T10:44:13Z</time>
      </trkpt>
      <trkpt lat="48.66525" lon="7.29642">
        <ele>573.4</ele>
        <time>2024-01-27T10:44:19Z</time>
      </trkpt>
      <trkpt lat="48.66541" lon="7.29661">
        <ele>569.7</ele>
        <time>2024-01-27T10:44:26Z</time>
      </trkpt>
      <trkpt lat="48.66553" lon="7.29684">
        <ele>565.4</ele>
        <time>2024-01-27T10:44:32Z</time>
      </trkpt>
      <trkpt lat="48.66568" lon="7.29706">
        <ele>560.5</ele>
        <time>2024-01-27T10:44:38Z</time>
      </trkpt>
      <trkpt lat="48.66587" lon="7.29721">
        <ele>555.5</ele>
        <time>2024-01-27T10:44:44Z</time>
      </trkpt>
      <trkpt lat="48.66607" lon="7.29729">
        <ele>550.5</ele>
        <time>2024-01-27T10:44:51Z</time>
      </trkpt>
      <trkpt lat="48.66627" lon="7.29726">
        <ele>546.2</ele>
        <time>2024-01-27T10:44:56Z</time>
      </trkpt>
      <trkpt lat="48.66646" lon="7.29719">
        <ele>542.6</ele>
        <time>2024-01-27T10:45:01Z</time>
      </trkpt>
      <trkpt lat="48.6665" lon="7.29717">
        <ele>542.1</ele>
        <time>2024-01-27T10:45:02Z</time>
      </trkpt>
      <trkpt lat="48.66657" lon="7.29711">
        <ele>540.9</ele>
        <time>2024-01-27T10:45:04Z</time>
      </trkpt>
      <trkpt lat="48.66668" lon="7.2969">
        <ele>539</ele>
        <time>2024-01-27T10:45:11Z</time>
      </trkpt>
      <trkpt lat="48.6667" lon="7.29661">
        <ele>537.4</ele>
        <time>2024-01-27T10:45:20Z</time>
      </trkpt>
      <trkpt lat="48.66674" lon="7.29633">
        <ele>535.9</ele>
        <time>2024-01-27T10:45:27Z</time>
      </trkpt>
      <trkpt lat="48.6668" lon="7.29607">
        <ele>534</ele>
        <time>2024-01-27T10:45:33Z</time>
      </trkpt>
      <trkpt lat="48.66684" lon="7.29576">
        <ele>531.6</ele>
        <time>2024-01-27T10:45:40Z</time>
      </trkpt>
      <trkpt lat="48.66683" lon="7.29542">
        <ele>528.4</ele>
        <time>2024-01-27T10:45:44Z</time>
      </trkpt>
      <trkpt lat="48.66686" lon="7.29513">
        <ele>525.7</ele>
        <time>2024-01-27T10:45:48Z</time>
      </trkpt>
      <trkpt lat="48.66683" lon="7.29484">
        <ele>524.1</ele>
        <time>2024-01-27T10:45:53Z</time>
      </trkpt>
      <trkpt lat="48.66676" lon="7.29458">
        <ele>523.3</ele>
        <time>2024-01-27T10:45:58Z</time>
      </trkpt>
      <trkpt lat="48.66669" lon="7.29428">
        <ele>522.4</ele>
        <time>2024-01-27T10:46:04Z</time>
      </trkpt>
      <trkpt lat="48.66663" lon="7.294">
        <ele>521.5</ele>
        <time>2024-01-27T10:46:10Z</time>
      </trkpt>
      <trkpt lat="48.66659" lon="7.29371">
        <ele>520.6</ele>
        <time>2024-01-27T10:46:16Z</time>
      </trkpt>
      <trkpt lat="48.66655" lon="7.29341">
        <ele>519.6</ele>
        <time>2024-01-27T10:46:23Z</time>
      </trkpt>
      <trkpt lat="48.66654" lon="7.29313">
        <ele>518.8</ele>
        <time>2024-01-27T10:46:29Z</time>
      </trkpt>
      <trkpt lat="48.66652" lon="7.29284">
        <ele>518</ele>
        <time>2024-01-27T10:46:35Z</time>
      </trkpt>
      <trkpt lat="48.66648" lon="7.29256">
        <ele>517.1</ele>
        <time>2024-01-27T10:46:41Z</time>
      </trkpt>
      <trkpt lat="48.66646" lon="7.29226">
        <ele>516.2</ele>
        <time>2024-01-27T10:46:48Z</time>
      </trkpt>
      <trkpt lat="48.66642" lon="7.29196">
        <ele>515.3</ele>
        <time>2024-01-27T10:46:54Z</time>
      </trkpt>
      <trkpt lat="48.66636" lon="7.2917">
        <ele>514.5</ele>
        <time>2024-01-27T10:47:00Z</time>
      </trkpt>
      <trkpt lat="48.66628" lon="7.29142">
        <ele>513.6</ele>
        <time>2024-01-27T10:47:06Z</time>
      </trkpt>
      <trkpt lat="48.66621" lon="7.29112">
        <ele>512.7</ele>
        <time>2024-01-27T10:47:12Z</time>
      </trkpt>
      <trkpt lat="48.66614" lon="7.29085">
        <ele>511.9</ele>
        <time>2024-01-27T10:47:18Z</time>
      </trkpt>
      <trkpt lat="48.6661" lon="7.29056">
        <ele>511.1</ele>
        <time>2024-01-27T10:47:24Z</time>
      </trkpt>
      <trkpt lat="48.66605" lon="7.29027">
        <ele>510.3</ele>
        <time>2024-01-27T10:47:31Z</time>
      </trkpt>
      <trkpt lat="48.66594" lon="7.29002">
        <ele>509.4</ele>
        <time>2024-01-27T10:47:39Z</time>
      </trkpt>
      <trkpt lat="48.6658" lon="7.28979">
        <ele>508.3</ele>
        <time>2024-01-27T10:47:46Z</time>
      </trkpt>
      <trkpt lat="48.66566" lon="7.28956">
        <ele>507.3</ele>
        <time>2024-01-27T10:47:53Z</time>
      </trkpt>
      <trkpt lat="48.66552" lon="7.28936">
        <ele>506.4</ele>
        <time>2024-01-27T10:47:59Z</time>
      </trkpt>
      <trkpt lat="48.66538" lon="7.28914">
        <ele>505.6</ele>
        <time>2024-01-27T10:48:05Z</time>
      </trkpt>
      <trkpt lat="48.66529" lon="7.28889">
        <ele>505.1</ele>
        <time>2024-01-27T10:48:11Z</time>
      </trkpt>
      <trkpt lat="48.66529" lon="7.28869">
        <ele>504.6</ele>
        <time>2024-01-27T10:48:16Z</time>
      </trkpt>
      <trkpt lat="48.66532" lon="7.28867">
        <ele>504.5</ele>
        <time>2024-01-27T10:48:18Z</time>
      </trkpt>
      <trkpt lat="48.6655" lon="7.28875">
        <ele>503.3</ele>
        <time>2024-01-27T10:48:26Z</time>
      </trkpt>
      <trkpt lat="48.66565" lon="7.28892">
        <ele>501.9</ele>
        <time>2024-01-27T10:48:34Z</time>
      </trkpt>
      <trkpt lat="48.66586" lon="7.28898">
        <ele>500.4</ele>
        <time>2024-01-27T10:48:40Z</time>
      </trkpt>
      <trkpt lat="48.66605" lon="7.28898">
        <ele>499.2</ele>
        <time>2024-01-27T10:48:45Z</time>
      </trkpt>
      <trkpt lat="48.66625" lon="7.28907">
        <ele>497.8</ele>
        <time>2024-01-27T10:48:52Z</time>
      </trkpt>
      <trkpt lat="48.66642" lon="7.28925">
        <ele>496.2</ele>
        <time>2024-01-27T10:49:00Z</time>
      </trkpt>
      <trkpt lat="48.6666" lon="7.28944">
        <ele>494.8</ele>
        <time>2024-01-27T10:49:07Z</time>
      </trkpt>
      <trkpt lat="48.66675" lon="7.2896">
        <ele>493.9</ele>
        <time>2024-01-27T10:49:12Z</time>
      </trkpt>
      <trkpt lat="48.66694" lon="7.28971">
        <ele>493.2</ele>
        <time>2024-01-27T10:49:18Z</time>
      </trkpt>
      <trkpt lat="48.66711" lon="7.28987">
        <ele>492.8</ele>
        <time>2024-01-27T10:49:25Z</time>
      </trkpt>
      <trkpt lat="48.66725" lon="7.29005">
        <ele>492.4</ele>
        <time>2024-01-27T10:49:31Z</time>
      </trkpt>
      <trkpt lat="48.66738" lon="7.29027">
        <ele>492.3</ele>
        <time>2024-01-27T10:49:39Z</time>
      </trkpt>
      <trkpt lat="48.66745" lon="7.29058">
        <ele>492</ele>
        <time>2024-01-27T10:49:46Z</time>
      </trkpt>
      <trkpt lat="48.66751" lon="7.29087">
        <ele>491.6</ele>
        <time>2024-01-27T10:49:52Z</time>
      </trkpt>
      <trkpt lat="48.66757" lon="7.29117">
        <ele>491.3</ele>
        <time>2024-01-27T10:49:58Z</time>
      </trkpt>
      <trkpt lat="48.66759" lon="7.29143">
        <ele>491.1</ele>
        <time>2024-01-27T10:50:06Z</time>
      </trkpt>
      <trkpt lat="48.66756" lon="7.2917">
        <ele>490.7</ele>
        <time>2024-01-27T10:50:15Z</time>
      </trkpt>
      <trkpt lat="48.66758" lon="7.29184">
        <ele>490.3</ele>
        <time>2024-01-27T10:50:20Z</time>
      </trkpt>
      <trkpt lat="48.66773" lon="7.29201">
        <ele>489.3</ele>
        <time>2024-01-27T10:50:28Z</time>
      </trkpt>
      <trkpt lat="48.6678" lon="7.29225">
        <ele>488.4</ele>
        <time>2024-01-27T10:50:39Z</time>
      </trkpt>
      <trkpt lat="48.6679" lon="7.29249">
        <ele>487.6</ele>
        <time>2024-01-27T10:50:49Z</time>
      </trkpt>
      <trkpt lat="48.66806" lon="7.2927">
        <ele>486.6</ele>
        <time>2024-01-27T10:50:56Z</time>
      </trkpt>
      <trkpt lat="48.6681" lon="7.29301">
        <ele>485.2</ele>
        <time>2024-01-27T10:51:03Z</time>
      </trkpt>
      <trkpt lat="48.66819" lon="7.29328">
        <ele>483.6</ele>
        <time>2024-01-27T10:51:09Z</time>
      </trkpt>
      <trkpt lat="48.66842" lon="7.29348">
        <ele>481.3</ele>
        <time>2024-01-27T10:51:16Z</time>
      </trkpt>
      <trkpt lat="48.66856" lon="7.29372">
        <ele>478.5</ele>
        <time>2024-01-27T10:51:24Z</time>
      </trkpt>
      <trkpt lat="48.66858" lon="7.29403">
        <ele>474.4</ele>
        <time>2024-01-27T10:51:30Z</time>
      </trkpt>
      <trkpt lat="48.66859" lon="7.29434">
        <ele>470.1</ele>
        <time>2024-01-27T10:51:35Z</time>
      </trkpt>
      <trkpt lat="48.66863" lon="7.29466">
        <ele>466</ele>
        <time>2024-01-27T10:51:41Z</time>
      </trkpt>
      <trkpt lat="48.66879" lon="7.2949">
        <ele>461.6</ele>
        <time>2024-01-27T10:51:48Z</time>
      </trkpt>
      <trkpt lat="48.66879" lon="7.29518">
        <ele>457.8</ele>
        <time>2024-01-27T10:51:54Z</time>
      </trkpt>
      <trkpt lat="48.66879" lon="7.2955">
        <ele>453.5</ele>
        <time>2024-01-27T10:52:00Z</time>
      </trkpt>
      <trkpt lat="48.66881" lon="7.29583">
        <ele>449.3</ele>
        <time>2024-01-27T10:52:06Z</time>
      </trkpt>
      <trkpt lat="48.66891" lon="7.29612">
        <ele>445</ele>
        <time>2024-01-27T10:52:12Z</time>
      </trkpt>
      <trkpt lat="48.66917" lon="7.29634">
        <ele>439.7</ele>
        <time>2024-01-27T10:52:18Z</time>
      </trkpt>
      <trkpt lat="48.66926" lon="7.29662">
        <ele>436</ele>
        <time>2024-01-27T10:52:23Z</time>
      </trkpt>
      <trkpt lat="48.66932" lon="7.29691">
        <ele>432.5</ele>
        <time>2024-01-27T10:52:29Z</time>
      </trkpt>
      <trkpt lat="48.66935" lon="7.29719">
        <ele>429.1</ele>
        <time>2024-01-27T10:52:35Z</time>
      </trkpt>
      <trkpt lat="48.66946" lon="7.29748">
        <ele>424.9</ele>
        <time>2024-01-27T10:52:41Z</time>
      </trkpt>
      <trkpt lat="48.66953" lon="7.29777">
        <ele>421</ele>
        <time>2024-01-27T10:52:48Z</time>
      </trkpt>
      <trkpt lat="48.66953" lon="7.29808">
        <ele>417.5</ele>
        <time>2024-01-27T10:52:57Z</time>
      </trkpt>
      <trkpt lat="48.66955" lon="7.29839">
        <ele>414.5</ele>
        <time>2024-01-27T10:53:02Z</time>
      </trkpt>
      <trkpt lat="48.66954" lon="7.29869">
        <ele>411.4</ele>
        <time>2024-01-27T10:53:07Z</time>
      </trkpt>
      <trkpt lat="48.66953" lon="7.29898">
        <ele>408.4</ele>
        <time>2024-01-27T10:53:12Z</time>
      </trkpt>
      <trkpt lat="48.66951" lon="7.29928">
        <ele>405.5</ele>
        <time>2024-01-27T10:53:19Z</time>
      </trkpt>
      <trkpt lat="48.66956" lon="7.29961">
        <ele>402.2</ele>
        <time>2024-01-27T10:53:26Z</time>
      </trkpt>
      <trkpt lat="48.66964" lon="7.2999">
        <ele>398.9</ele>
        <time>2024-01-27T10:53:33Z</time>
      </trkpt>
      <trkpt lat="48.66962" lon="7.30022">
        <ele>395.7</ele>
        <time>2024-01-27T10:53:38Z</time>
      </trkpt>
      <trkpt lat="48.66956" lon="7.30049">
        <ele>393.2</ele>
        <time>2024-01-27T10:53:43Z</time>
      </trkpt>
      <trkpt lat="48.66952" lon="7.30076">
        <ele>390.3</ele>
        <time>2024-01-27T10:53:48Z</time>
      </trkpt>
      <trkpt lat="48.66942" lon="7.30109">
        <ele>387.3</ele>
        <time>2024-01-27T10:53:53Z</time>
      </trkpt>
      <trkpt lat="48.66941" lon="7.30137">
        <ele>385.3</ele>
        <time>2024-01-27T10:53:58Z</time>
      </trkpt>
      <trkpt lat="48.66939" lon="7.30165">
        <ele>376</ele>
        <time>2024-01-27T10:54:03Z</time>
      </trkpt>
      <trkpt lat="48.66938" lon="7.30193">
        <ele>371.9</ele>
        <time>2024-01-27T10:54:08Z</time>
      </trkpt>
      <trkpt lat="48.66941" lon="7.30224">
        <ele>370.6</ele>
        <time>2024-01-27T10:54:14Z</time>
      </trkpt>
      <trkpt lat="48.66951" lon="7.30248">
        <ele>369.5</ele>
        <time>2024-01-27T10:54:21Z</time>
      </trkpt>
      <trkpt lat="48.66963" lon="7.30268">
        <ele>368.5</ele>
        <time>2024-01-27T10:54:27Z</time>
      </trkpt>
      <trkpt lat="48.66974" lon="7.30296">
        <ele>367.3</ele>
        <time>2024-01-27T10:54:34Z</time>
      </trkpt>
      <trkpt lat="48.6699" lon="7.30319">
        <ele>366.2</ele>
        <time>2024-01-27T10:54:41Z</time>
      </trkpt>
      <trkpt lat="48.67004" lon="7.30339">
        <ele>365.2</ele>
        <time>2024-01-27T10:54:47Z</time>
      </trkpt>
      <trkpt lat="48.67021" lon="7.3036">
        <ele>364</ele>
        <time>2024-01-27T10:54:53Z</time>
      </trkpt>
      <trkpt lat="48.67034" lon="7.30382">
        <ele>362.9</ele>
        <time>2024-01-27T10:54:59Z</time>
      </trkpt>
      <trkpt lat="48.67049" lon="7.30404">
        <ele>361.8</ele>
        <time>2024-01-27T10:55:05Z</time>
      </trkpt>
      <trkpt lat="48.67062" lon="7.30428">
        <ele>360.8</ele>
        <time>2024-01-27T10:55:11Z</time>
      </trkpt>
      <trkpt lat="48.67076" lon="7.30446">
        <ele>360</ele>
        <time>2024-01-27T10:55:17Z</time>
      </trkpt>
      <trkpt lat="48.67087" lon="7.30469">
        <ele>359.2</ele>
        <time>2024-01-27T10:55:23Z</time>
      </trkpt>
      <trkpt lat="48.67099" lon="7.30491">
        <ele>358.5</ele>
        <time>2024-01-27T10:55:29Z</time>
      </trkpt>
      <trkpt lat="48.67111" lon="7.30513">
        <ele>357.5</ele>
        <time>2024-01-27T10:55:35Z</time>
      </trkpt>
      <trkpt lat="48.67117" lon="7.30542">
        <ele>356.4</ele>
        <time>2024-01-27T10:55:41Z</time>
      </trkpt>
      <trkpt lat="48.67118" lon="7.30569">
        <ele>355.4</ele>
        <time>2024-01-27T10:55:46Z</time>
      </trkpt>
      <trkpt lat="48.67119" lon="7.30599">
        <ele>354.3</ele>
        <time>2024-01-27T10:55:51Z</time>
      </trkpt>
      <trkpt lat="48.67123" lon="7.30628">
        <ele>353.3</ele>
        <time>2024-01-27T10:55:56Z</time>
      </trkpt>
      <trkpt lat="48.67126" lon="7.3066">
        <ele>352.3</ele>
        <time>2024-01-27T10:56:02Z</time>
      </trkpt>
      <trkpt lat="48.67129" lon="7.30689">
        <ele>351.3</ele>
        <time>2024-01-27T10:56:07Z</time>
      </trkpt>
      <trkpt lat="48.67134" lon="7.30717">
        <ele>350.2</ele>
        <time>2024-01-27T10:56:13Z</time>
      </trkpt>
      <trkpt lat="48.67144" lon="7.30745">
        <ele>349.1</ele>
        <time>2024-01-27T10:56:20Z</time>
      </trkpt>
      <trkpt lat="48.6716" lon="7.30775">
        <ele>347.6</ele>
        <time>2024-01-27T10:56:28Z</time>
      </trkpt>
      <trkpt lat="48.67164" lon="7.30806">
        <ele>346.3</ele>
        <time>2024-01-27T10:56:34Z</time>
      </trkpt>
      <trkpt lat="48.67165" lon="7.30838">
        <ele>345</ele>
        <time>2024-01-27T10:56:39Z</time>
      </trkpt>
      <trkpt lat="48.67167" lon="7.30867">
        <ele>343.8</ele>
        <time>2024-01-27T10:56:44Z</time>
      </trkpt>
      <trkpt lat="48.67172" lon="7.30899">
        <ele>342.6</ele>
        <time>2024-01-27T10:56:50Z</time>
      </trkpt>
      <trkpt lat="48.67173" lon="7.30927">
        <ele>341.6</ele>
        <time>2024-01-27T10:56:55Z</time>
      </trkpt>
      <trkpt lat="48.67176" lon="7.30959">
        <ele>340.5</ele>
        <time>2024-01-27T10:57:01Z</time>
      </trkpt>
      <trkpt lat="48.67178" lon="7.30987">
        <ele>339.6</ele>
        <time>2024-01-27T10:57:06Z</time>
      </trkpt>
      <trkpt lat="48.67228" lon="7.31001">
        <ele>338.3</ele>
        <time>2024-01-27T10:57:14Z</time>
      </trkpt>
      <trkpt lat="48.67247" lon="7.31031">
        <ele>337.5</ele>
        <time>2024-01-27T10:57:21Z</time>
      </trkpt>
      <trkpt lat="48.67256" lon="7.31062">
        <ele>337</ele>
        <time>2024-01-27T10:57:28Z</time>
      </trkpt>
      <trkpt lat="48.67258" lon="7.31091">
        <ele>335.5</ele>
        <time>2024-01-27T10:57:34Z</time>
      </trkpt>
      <trkpt lat="48.6728" lon="7.31118">
        <ele>333.7</ele>
        <time>2024-01-27T10:57:44Z</time>
      </trkpt>
      <trkpt lat="48.67286" lon="7.31148">
        <ele>332.7</ele>
        <time>2024-01-27T10:57:51Z</time>
      </trkpt>
      <trkpt lat="48.67291" lon="7.31176">
        <ele>332</ele>
        <time>2024-01-27T10:57:58Z</time>
      </trkpt>
      <trkpt lat="48.67295" lon="7.31203">
        <ele>331.5</ele>
        <time>2024-01-27T10:58:06Z</time>
      </trkpt>
      <trkpt lat="48.67295" lon="7.31234">
        <ele>331.2</ele>
        <time>2024-01-27T10:58:13Z</time>
      </trkpt>
      <trkpt lat="48.67295" lon="7.31264">
        <ele>331.2</ele>
        <time>2024-01-27T10:58:19Z</time>
      </trkpt>
      <trkpt lat="48.67298" lon="7.31294">
        <ele>331.6</ele>
        <time>2024-01-27T10:58:26Z</time>
      </trkpt>
      <trkpt lat="48.67288" lon="7.31328">
        <ele>332.4</ele>
        <time>2024-01-27T10:58:31Z</time>
      </trkpt>
      <trkpt lat="48.67282" lon="7.31357">
        <ele>333.3</ele>
        <time>2024-01-27T10:58:36Z</time>
      </trkpt>
      <trkpt lat="48.67282" lon="7.31389">
        <ele>334.5</ele>
        <time>2024-01-27T10:58:43Z</time>
      </trkpt>
      <trkpt lat="48.67283" lon="7.31418">
        <ele>335.8</ele>
        <time>2024-01-27T10:58:50Z</time>
      </trkpt>
      <trkpt lat="48.67291" lon="7.31444">
        <ele>337.1</ele>
        <time>2024-01-27T10:58:58Z</time>
      </trkpt>
      <trkpt lat="48.67302" lon="7.3147">
        <ele>338.4</ele>
        <time>2024-01-27T10:59:07Z</time>
      </trkpt>
      <trkpt lat="48.67311" lon="7.31496">
        <ele>339.7</ele>
        <time>2024-01-27T10:59:14Z</time>
      </trkpt>
      <trkpt lat="48.67323" lon="7.31517">
        <ele>340.9</ele>
        <time>2024-01-27T10:59:21Z</time>
      </trkpt>
      <trkpt lat="48.67339" lon="7.31533">
        <ele>342.2</ele>
        <time>2024-01-27T10:59:29Z</time>
      </trkpt>
      <trkpt lat="48.67357" lon="7.31548">
        <ele>343.7</ele>
        <time>2024-01-27T10:59:37Z</time>
      </trkpt>
      <trkpt lat="48.67377" lon="7.31559">
        <ele>345</ele>
        <time>2024-01-27T10:59:45Z</time>
      </trkpt>
      <trkpt lat="48.67393" lon="7.3157">
        <ele>345.8</ele>
        <time>2024-01-27T10:59:52Z</time>
      </trkpt>
      <trkpt lat="48.67412" lon="7.31577">
        <ele>346</ele>
        <time>2024-01-27T10:59:59Z</time>
      </trkpt>
      <trkpt lat="48.67415" lon="7.31577">
        <ele>346</ele>
        <time>2024-01-27T11:00:01Z</time>
      </trkpt>
      <trkpt lat="48.67418" lon="7.3155">
        <ele>353.6</ele>
        <time>2024-01-27T11:00:11Z</time>
      </trkpt>
      <trkpt lat="48.67428" lon="7.31527">
        <ele>357.7</ele>
        <time>2024-01-27T11:00:24Z</time>
      </trkpt>
      <trkpt lat="48.67446" lon="7.31521">
        <ele>359.7</ele>
        <time>2024-01-27T11:00:36Z</time>
      </trkpt>
      <trkpt lat="48.67453" lon="7.31523">
        <ele>360.6</ele>
        <time>2024-01-27T11:00:43Z</time>
      </trkpt>
      <trkpt lat="48.67472" lon="7.3152">
        <ele>363.6</ele>
        <time>2024-01-27T11:00:53Z</time>
      </trkpt>
      <trkpt lat="48.67487" lon="7.31514">
        <ele>367.2</ele>
        <time>2024-01-27T11:01:06Z</time>
      </trkpt>
      <trkpt lat="48.6749" lon="7.31513">
        <ele>368</ele>
        <time>2024-01-27T11:01:09Z</time>
      </trkpt>
      <trkpt lat="48.67493" lon="7.31513">
        <ele>368.7</ele>
        <time>2024-01-27T11:01:12Z</time>
      </trkpt>
      <trkpt lat="48.67512" lon="7.31508">
        <ele>373.5</ele>
        <time>2024-01-27T11:01:24Z</time>
      </trkpt>
      <trkpt lat="48.67522" lon="7.31502">
        <ele>376.4</ele>
        <time>2024-01-27T11:01:34Z</time>
      </trkpt>
      <trkpt lat="48.6754" lon="7.31505">
        <ele>380.7</ele>
        <time>2024-01-27T11:01:47Z</time>
      </trkpt>
      <trkpt lat="48.67558" lon="7.31507">
        <ele>383.4</ele>
        <time>2024-01-27T11:01:56Z</time>
      </trkpt>
      <trkpt lat="48.67578" lon="7.31499">
        <ele>386</ele>
        <time>2024-01-27T11:02:04Z</time>
      </trkpt>
      <trkpt lat="48.67596" lon="7.31493">
        <ele>388.9</ele>
        <time>2024-01-27T11:02:15Z</time>
      </trkpt>
      <trkpt lat="48.67606" lon="7.31494">
        <ele>390.6</ele>
        <time>2024-01-27T11:02:23Z</time>
      </trkpt>
      <trkpt lat="48.67611" lon="7.31496">
        <ele>391.5</ele>
        <time>2024-01-27T11:02:28Z</time>
      </trkpt>
      <trkpt lat="48.67629" lon="7.31485">
        <ele>394.9</ele>
        <time>2024-01-27T11:02:37Z</time>
      </trkpt>
      <trkpt lat="48.67649" lon="7.31481">
        <ele>398</ele>
        <time>2024-01-27T11:02:48Z</time>
      </trkpt>
      <trkpt lat="48.67665" lon="7.31468">
        <ele>400.3</ele>
        <time>2024-01-27T11:02:57Z</time>
      </trkpt>
      <trkpt lat="48.67681" lon="7.31451">
        <ele>402.6</ele>
        <time>2024-01-27T11:03:08Z</time>
      </trkpt>
      <trkpt lat="48.67697" lon="7.31437">
        <ele>405.5</ele>
        <time>2024-01-27T11:03:23Z</time>
      </trkpt>
      <trkpt lat="48.67717" lon="7.31427">
        <ele>408.1</ele>
        <time>2024-01-27T11:03:35Z</time>
      </trkpt>
      <trkpt lat="48.67733" lon="7.31417">
        <ele>410.7</ele>
        <time>2024-01-27T11:03:44Z</time>
      </trkpt>
      <trkpt lat="48.67737" lon="7.31419">
        <ele>411.4</ele>
        <time>2024-01-27T11:03:47Z</time>
      </trkpt>
      <trkpt lat="48.67755" lon="7.31414">
        <ele>414</ele>
        <time>2024-01-27T11:03:55Z</time>
      </trkpt>
      <trkpt lat="48.67773" lon="7.31406">
        <ele>415.8</ele>
        <time>2024-01-27T11:04:05Z</time>
      </trkpt>
      <trkpt lat="48.67792" lon="7.31396">
        <ele>417.7</ele>
        <time>2024-01-27T11:04:14Z</time>
      </trkpt>
      <trkpt lat="48.67811" lon="7.3139">
        <ele>418.7</ele>
        <time>2024-01-27T11:04:19Z</time>
      </trkpt>
      <trkpt lat="48.67825" lon="7.31375">
        <ele>419.6</ele>
        <time>2024-01-27T11:04:26Z</time>
      </trkpt>
      <trkpt lat="48.67843" lon="7.31369">
        <ele>420.9</ele>
        <time>2024-01-27T11:04:34Z</time>
      </trkpt>
      <trkpt lat="48.67861" lon="7.3136">
        <ele>422.5</ele>
        <time>2024-01-27T11:04:43Z</time>
      </trkpt>
      <trkpt lat="48.67866" lon="7.31362">
        <ele>423.1</ele>
        <time>2024-01-27T11:04:48Z</time>
      </trkpt>
      <trkpt lat="48.67882" lon="7.31375">
        <ele>425.5</ele>
        <time>2024-01-27T11:04:57Z</time>
      </trkpt>
      <trkpt lat="48.67899" lon="7.31389">
        <ele>427.7</ele>
        <time>2024-01-27T11:05:08Z</time>
      </trkpt>
      <trkpt lat="48.6792" lon="7.31404">
        <ele>430.4</ele>
        <time>2024-01-27T11:05:17Z</time>
      </trkpt>
      <trkpt lat="48.67941" lon="7.31408">
        <ele>433.5</ele>
        <time>2024-01-27T11:05:24Z</time>
      </trkpt>
      <trkpt lat="48.6796" lon="7.31419">
        <ele>437.5</ele>
        <time>2024-01-27T11:05:34Z</time>
      </trkpt>
      <trkpt lat="48.67966" lon="7.31424">
        <ele>438.9</ele>
        <time>2024-01-27T11:05:39Z</time>
      </trkpt>
      <trkpt lat="48.67984" lon="7.31415">
        <ele>442</ele>
        <time>2024-01-27T11:05:48Z</time>
      </trkpt>
      <trkpt lat="48.68" lon="7.31402">
        <ele>444.1</ele>
        <time>2024-01-27T11:05:55Z</time>
      </trkpt>
      <trkpt lat="48.68016" lon="7.31386">
        <ele>446.7</ele>
        <time>2024-01-27T11:06:05Z</time>
      </trkpt>
      <trkpt lat="48.68033" lon="7.31375">
        <ele>449.2</ele>
        <time>2024-01-27T11:06:15Z</time>
      </trkpt>
      <trkpt lat="48.68051" lon="7.31369">
        <ele>451</ele>
        <time>2024-01-27T11:06:29Z</time>
      </trkpt>
      <trkpt lat="48.68074" lon="7.31356">
        <ele>454.1</ele>
        <time>2024-01-27T11:06:39Z</time>
      </trkpt>
      <trkpt lat="48.68092" lon="7.31348">
        <ele>457</ele>
        <time>2024-01-27T11:06:46Z</time>
      </trkpt>
      <trkpt lat="48.68109" lon="7.31338">
        <ele>460.2</ele>
        <time>2024-01-27T11:06:54Z</time>
      </trkpt>
      <trkpt lat="48.68124" lon="7.3132">
        <ele>463.8</ele>
        <time>2024-01-27T11:07:03Z</time>
      </trkpt>
      <trkpt lat="48.68135" lon="7.31298">
        <ele>466</ele>
        <time>2024-01-27T11:07:11Z</time>
      </trkpt>
      <trkpt lat="48.68138" lon="7.31269">
        <ele>467.3</ele>
        <time>2024-01-27T11:07:20Z</time>
      </trkpt>
      <trkpt lat="48.68133" lon="7.31243">
        <ele>468.3</ele>
        <time>2024-01-27T11:07:28Z</time>
      </trkpt>
      <trkpt lat="48.68129" lon="7.31217">
        <ele>469.8</ele>
        <time>2024-01-27T11:07:36Z</time>
      </trkpt>
      <trkpt lat="48.68126" lon="7.31189">
        <ele>471.3</ele>
        <time>2024-01-27T11:07:43Z</time>
      </trkpt>
      <trkpt lat="48.68123" lon="7.31159">
        <ele>472.7</ele>
        <time>2024-01-27T11:07:52Z</time>
      </trkpt>
      <trkpt lat="48.68114" lon="7.31134">
        <ele>473.3</ele>
        <time>2024-01-27T11:07:59Z</time>
      </trkpt>
      <trkpt lat="48.68097" lon="7.31122">
        <ele>474</ele>
        <time>2024-01-27T11:08:08Z</time>
      </trkpt>
      <trkpt lat="48.68082" lon="7.31106">
        <ele>474.7</ele>
        <time>2024-01-27T11:08:16Z</time>
      </trkpt>
      <trkpt lat="48.6807" lon="7.31084">
        <ele>475.4</ele>
        <time>2024-01-27T11:08:24Z</time>
      </trkpt>
      <trkpt lat="48.68058" lon="7.3106">
        <ele>476</ele>
        <time>2024-01-27T11:08:32Z</time>
      </trkpt>
      <trkpt lat="48.68047" lon="7.31039">
        <ele>476.7</ele>
        <time>2024-01-27T11:08:39Z</time>
      </trkpt>
      <trkpt lat="48.68035" lon="7.31016">
        <ele>477.4</ele>
        <time>2024-01-27T11:08:46Z</time>
      </trkpt>
      <trkpt lat="48.68034" lon="7.30986">
        <ele>478.2</ele>
        <time>2024-01-27T11:08:54Z</time>
      </trkpt>
      <trkpt lat="48.68033" lon="7.30958">
        <ele>478.9</ele>
        <time>2024-01-27T11:09:01Z</time>
      </trkpt>
      <trkpt lat="48.68033" lon="7.30929">
        <ele>479.7</ele>
        <time>2024-01-27T11:09:10Z</time>
      </trkpt>
      <trkpt lat="48.68042" lon="7.30901">
        <ele>481</ele>
        <time>2024-01-27T11:09:17Z</time>
      </trkpt>
      <trkpt lat="48.68053" lon="7.30878">
        <ele>482.2</ele>
        <time>2024-01-27T11:09:23Z</time>
      </trkpt>
      <trkpt lat="48.6806" lon="7.30852">
        <ele>483.2</ele>
        <time>2024-01-27T11:09:29Z</time>
      </trkpt>
      <trkpt lat="48.68067" lon="7.30821">
        <ele>484.3</ele>
        <time>2024-01-27T11:09:36Z</time>
      </trkpt>
      <trkpt lat="48.68069" lon="7.30792">
        <ele>485.5</ele>
        <time>2024-01-27T11:09:43Z</time>
      </trkpt>
      <trkpt lat="48.68072" lon="7.30762">
        <ele>486.7</ele>
        <time>2024-01-27T11:09:51Z</time>
      </trkpt>
      <trkpt lat="48.68069" lon="7.30733">
        <ele>487.7</ele>
        <time>2024-01-27T11:09:58Z</time>
      </trkpt>
      <trkpt lat="48.68064" lon="7.30704">
        <ele>488.6</ele>
        <time>2024-01-27T11:10:05Z</time>
      </trkpt>
      <trkpt lat="48.68058" lon="7.30676">
        <ele>489.2</ele>
        <time>2024-01-27T11:10:12Z</time>
      </trkpt>
      <trkpt lat="48.68049" lon="7.30648">
        <ele>489.7</ele>
        <time>2024-01-27T11:10:18Z</time>
      </trkpt>
      <trkpt lat="48.68038" lon="7.30622">
        <ele>490.2</ele>
        <time>2024-01-27T11:10:25Z</time>
      </trkpt>
      <trkpt lat="48.68036" lon="7.30593">
        <ele>490.6</ele>
        <time>2024-01-27T11:10:32Z</time>
      </trkpt>
      <trkpt lat="48.68032" lon="7.30566">
        <ele>491.1</ele>
        <time>2024-01-27T11:10:38Z</time>
      </trkpt>
      <trkpt lat="48.68022" lon="7.3054">
        <ele>491.6</ele>
        <time>2024-01-27T11:10:45Z</time>
      </trkpt>
      <trkpt lat="48.68014" lon="7.30512">
        <ele>492.2</ele>
        <time>2024-01-27T11:10:53Z</time>
      </trkpt>
      <trkpt lat="48.68002" lon="7.3049">
        <ele>492.7</ele>
        <time>2024-01-27T11:11:00Z</time>
      </trkpt>
      <trkpt lat="48.67991" lon="7.30467">
        <ele>493.2</ele>
        <time>2024-01-27T11:11:06Z</time>
      </trkpt>
      <trkpt lat="48.6798" lon="7.30444">
        <ele>493.9</ele>
        <time>2024-01-27T11:11:12Z</time>
      </trkpt>
      <trkpt lat="48.67967" lon="7.3042">
        <ele>494.9</ele>
        <time>2024-01-27T11:11:19Z</time>
      </trkpt>
      <trkpt lat="48.67956" lon="7.30398">
        <ele>495.7</ele>
        <time>2024-01-27T11:11:26Z</time>
      </trkpt>
      <trkpt lat="48.67943" lon="7.30374">
        <ele>495.6</ele>
        <time>2024-01-27T11:11:32Z</time>
      </trkpt>
      <trkpt lat="48.67935" lon="7.30345">
        <ele>494.8</ele>
        <time>2024-01-27T11:11:38Z</time>
      </trkpt>
      <trkpt lat="48.67927" lon="7.3032">
        <ele>494</ele>
        <time>2024-01-27T11:11:44Z</time>
      </trkpt>
      <trkpt lat="48.67916" lon="7.30295">
        <ele>492.9</ele>
        <time>2024-01-27T11:11:50Z</time>
      </trkpt>
      <trkpt lat="48.67904" lon="7.30272">
        <ele>491.9</ele>
        <time>2024-01-27T11:11:56Z</time>
      </trkpt>
      <trkpt lat="48.67889" lon="7.30254">
        <ele>491.2</ele>
        <time>2024-01-27T11:12:01Z</time>
      </trkpt>
      <trkpt lat="48.67872" lon="7.30237">
        <ele>490.6</ele>
        <time>2024-01-27T11:12:07Z</time>
      </trkpt>
      <trkpt lat="48.67858" lon="7.30212">
        <ele>490</ele>
        <time>2024-01-27T11:12:13Z</time>
      </trkpt>
      <trkpt lat="48.67846" lon="7.30188">
        <ele>489.3</ele>
        <time>2024-01-27T11:12:19Z</time>
      </trkpt>
      <trkpt lat="48.67838" lon="7.3016">
        <ele>487.9</ele>
        <time>2024-01-27T11:12:26Z</time>
      </trkpt>
      <trkpt lat="48.67835" lon="7.3013">
        <ele>486.1</ele>
        <time>2024-01-27T11:12:31Z</time>
      </trkpt>
      <trkpt lat="48.67831" lon="7.30102">
        <ele>486.1</ele>
        <time>2024-01-27T11:12:36Z</time>
      </trkpt>
      <trkpt lat="48.67827" lon="7.30072">
        <ele>486.3</ele>
        <time>2024-01-27T11:12:42Z</time>
      </trkpt>
      <trkpt lat="48.67819" lon="7.30043">
        <ele>487</ele>
        <time>2024-01-27T11:12:48Z</time>
      </trkpt>
      <trkpt lat="48.67808" lon="7.3002">
        <ele>487.7</ele>
        <time>2024-01-27T11:12:54Z</time>
      </trkpt>
      <trkpt lat="48.67801" lon="7.29993">
        <ele>488.5</ele>
        <time>2024-01-27T11:13:01Z</time>
      </trkpt>
      <trkpt lat="48.67791" lon="7.29967">
        <ele>489.2</ele>
        <time>2024-01-27T11:13:08Z</time>
      </trkpt>
      <trkpt lat="48.6778" lon="7.29941">
        <ele>489.8</ele>
        <time>2024-01-27T11:13:15Z</time>
      </trkpt>
      <trkpt lat="48.67768" lon="7.29921">
        <ele>490</ele>
        <time>2024-01-27T11:13:22Z</time>
      </trkpt>
      <trkpt lat="48.6775" lon="7.29913">
        <ele>490.1</ele>
        <time>2024-01-27T11:13:34Z</time>
      </trkpt>
      <trkpt lat="48.67732" lon="7.29913">
        <ele>493.5</ele>
        <time>2024-01-27T11:13:45Z</time>
      </trkpt>
      <trkpt lat="48.67731" lon="7.29913">
        <ele>493.8</ele>
        <time>2024-01-27T11:13:46Z</time>
      </trkpt>
      <trkpt lat="48.67715" lon="7.299">
        <ele>497.2</ele>
        <time>2024-01-27T11:14:00Z</time>
      </trkpt>
      <trkpt lat="48.67697" lon="7.29892">
        <ele>501.2</ele>
        <time>2024-01-27T11:14:12Z</time>
      </trkpt>
      <trkpt lat="48.67678" lon="7.29889">
        <ele>504.6</ele>
        <time>2024-01-27T11:14:23Z</time>
      </trkpt>
      <trkpt lat="48.67659" lon="7.29886">
        <ele>508.8</ele>
        <time>2024-01-27T11:14:31Z</time>
      </trkpt>
      <trkpt lat="48.67644" lon="7.2987">
        <ele>513.1</ele>
        <time>2024-01-27T11:14:43Z</time>
      </trkpt>
      <trkpt lat="48.67626" lon="7.29859">
        <ele>517.9</ele>
        <time>2024-01-27T11:14:55Z</time>
      </trkpt>
      <trkpt lat="48.67611" lon="7.29843">
        <ele>522.5</ele>
        <time>2024-01-27T11:15:08Z</time>
      </trkpt>
      <trkpt lat="48.67606" lon="7.29839">
        <ele>523.5</ele>
        <time>2024-01-27T11:15:11Z</time>
      </trkpt>
      <trkpt lat="48.6759" lon="7.29823">
        <ele>525.5</ele>
        <time>2024-01-27T11:15:23Z</time>
      </trkpt>
      <trkpt lat="48.67582" lon="7.29797">
        <ele>525.8</ele>
        <time>2024-01-27T11:15:33Z</time>
      </trkpt>
      <trkpt lat="48.67584" lon="7.29767">
        <ele>526.3</ele>
        <time>2024-01-27T11:15:45Z</time>
      </trkpt>
      <trkpt lat="48.67584" lon="7.2974">
        <ele>527.2</ele>
        <time>2024-01-27T11:15:53Z</time>
      </trkpt>
      <trkpt lat="48.67575" lon="7.29713">
        <ele>528.6</ele>
        <time>2024-01-27T11:16:03Z</time>
      </trkpt>
      <trkpt lat="48.67571" lon="7.29687">
        <ele>530.3</ele>
        <time>2024-01-27T11:16:12Z</time>
      </trkpt>
      <trkpt lat="48.67566" lon="7.29676">
        <ele>531.2</ele>
        <time>2024-01-27T11:16:18Z</time>
      </trkpt>
      <trkpt lat="48.67548" lon="7.29692">
        <ele>540.2</ele>
        <time>2024-01-27T11:16:25Z</time>
      </trkpt>
      <trkpt lat="48.67533" lon="7.2971">
        <ele>545.4</ele>
        <time>2024-01-27T11:16:35Z</time>
      </trkpt>
      <trkpt lat="48.67518" lon="7.29725">
        <ele>550.3</ele>
        <time>2024-01-27T11:16:43Z</time>
      </trkpt>
      <trkpt lat="48.67504" lon="7.29746">
        <ele>552.9</ele>
        <time>2024-01-27T11:16:52Z</time>
      </trkpt>
      <trkpt lat="48.67496" lon="7.29753">
        <ele>555.4</ele>
        <time>2024-01-27T11:16:58Z</time>
      </trkpt>
      <trkpt lat="48.67473" lon="7.29759">
        <ele>560.9</ele>
        <time>2024-01-27T11:17:02Z</time>
      </trkpt>
      <trkpt lat="48.67455" lon="7.29747">
        <ele>565.1</ele>
        <time>2024-01-27T11:17:10Z</time>
      </trkpt>
      <trkpt lat="48.67442" lon="7.29728">
        <ele>566.9</ele>
        <time>2024-01-27T11:17:17Z</time>
      </trkpt>
      <trkpt lat="48.67423" lon="7.29719">
        <ele>568.2</ele>
        <time>2024-01-27T11:17:25Z</time>
      </trkpt>
      <trkpt lat="48.67423" lon="7.29692">
        <ele>568.8</ele>
        <time>2024-01-27T11:17:33Z</time>
      </trkpt>
      <trkpt lat="48.6743" lon="7.29665">
        <ele>570.5</ele>
        <time>2024-01-27T11:17:43Z</time>
      </trkpt>
      <trkpt lat="48.67437" lon="7.29639">
        <ele>573</ele>
        <time>2024-01-27T11:17:52Z</time>
      </trkpt>
      <trkpt lat="48.67445" lon="7.2961">
        <ele>575.1</ele>
        <time>2024-01-27T11:18:00Z</time>
      </trkpt>
      <trkpt lat="48.67452" lon="7.29583">
        <ele>576.9</ele>
        <time>2024-01-27T11:18:07Z</time>
      </trkpt>
      <trkpt lat="48.67457" lon="7.29556">
        <ele>578.6</ele>
        <time>2024-01-27T11:18:13Z</time>
      </trkpt>
      <trkpt lat="48.67465" lon="7.29529">
        <ele>581.2</ele>
        <time>2024-01-27T11:18:21Z</time>
      </trkpt>
      <trkpt lat="48.67468" lon="7.29499">
        <ele>585.3</ele>
        <time>2024-01-27T11:18:35Z</time>
      </trkpt>
      <trkpt lat="48.67472" lon="7.29472">
        <ele>590.8</ele>
        <time>2024-01-27T11:18:48Z</time>
      </trkpt>
      <trkpt lat="48.67471" lon="7.29463">
        <ele>592.9</ele>
        <time>2024-01-27T11:18:54Z</time>
      </trkpt>
      <trkpt lat="48.67462" lon="7.29464">
        <ele>595.8</ele>
        <time>2024-01-27T11:19:01Z</time>
      </trkpt>
      <trkpt lat="48.67461" lon="7.29464">
        <ele>596.1</ele>
        <time>2024-01-27T11:19:02Z</time>
      </trkpt>
      <trkpt lat="48.67456" lon="7.29463">
        <ele>597.7</ele>
        <time>2024-01-27T11:19:09Z</time>
      </trkpt>
      <trkpt lat="48.67453" lon="7.29465">
        <ele>598.8</ele>
        <time>2024-01-27T11:19:16Z</time>
      </trkpt>
      <trkpt lat="48.6745" lon="7.29467">
        <ele>599.9</ele>
        <time>2024-01-27T11:19:22Z</time>
      </trkpt>
      <trkpt lat="48.67449" lon="7.29452">
        <ele>602.9</ele>
        <time>2024-01-27T11:19:34Z</time>
      </trkpt>
      <trkpt lat="48.67444" lon="7.29453">
        <ele>604.3</ele>
        <time>2024-01-27T11:19:37Z</time>
      </trkpt>
      <trkpt lat="48.67438" lon="7.29449">
        <ele>606.2</ele>
        <time>2024-01-27T11:19:41Z</time>
      </trkpt>
      <trkpt lat="48.67418" lon="7.29443">
        <ele>609.8</ele>
        <time>2024-01-27T11:19:52Z</time>
      </trkpt>
      <trkpt lat="48.67413" lon="7.29442">
        <ele>610.2</ele>
        <time>2024-01-27T11:19:54Z</time>
      </trkpt>
      <trkpt lat="48.67395" lon="7.29429">
        <ele>611.4</ele>
        <time>2024-01-27T11:20:02Z</time>
      </trkpt>
      <trkpt lat="48.67382" lon="7.29406">
        <ele>611.4</ele>
        <time>2024-01-27T11:20:11Z</time>
      </trkpt>
      <trkpt lat="48.67364" lon="7.29402">
        <ele>611.7</ele>
        <time>2024-01-27T11:20:18Z</time>
      </trkpt>
      <trkpt lat="48.67345" lon="7.29397">
        <ele>612.3</ele>
        <time>2024-01-27T11:20:26Z</time>
      </trkpt>
      <trkpt lat="48.67333" lon="7.29372">
        <ele>611.9</ele>
        <time>2024-01-27T11:20:33Z</time>
      </trkpt>
      <trkpt lat="48.67317" lon="7.29357">
        <ele>611.5</ele>
        <time>2024-01-27T11:20:40Z</time>
      </trkpt>
      <trkpt lat="48.67301" lon="7.29345">
        <ele>612.3</ele>
        <time>2024-01-27T11:20:48Z</time>
      </trkpt>
      <trkpt lat="48.67286" lon="7.29334">
        <ele>613</ele>
        <time>2024-01-27T11:20:54Z</time>
      </trkpt>
      <trkpt lat="48.67278" lon="7.29322">
        <ele>613.2</ele>
        <time>2024-01-27T11:20:58Z</time>
      </trkpt>
      <trkpt lat="48.67262" lon="7.29311">
        <ele>613.5</ele>
        <time>2024-01-27T11:21:04Z</time>
      </trkpt>
      <trkpt lat="48.67245" lon="7.29297">
        <ele>613.9</ele>
        <time>2024-01-27T11:21:10Z</time>
      </trkpt>
      <trkpt lat="48.67229" lon="7.29277">
        <ele>614.3</ele>
        <time>2024-01-27T11:21:17Z</time>
      </trkpt>
      <trkpt lat="48.67213" lon="7.29263">
        <ele>614.9</ele>
        <time>2024-01-27T11:21:24Z</time>
      </trkpt>
      <trkpt lat="48.67199" lon="7.29245">
        <ele>615.3</ele>
        <time>2024-01-27T11:21:31Z</time>
      </trkpt>
      <trkpt lat="48.6719" lon="7.29221">
        <ele>608.5</ele>
        <time>2024-01-27T11:21:39Z</time>
      </trkpt>
      <trkpt lat="48.6718" lon="7.29196">
        <ele>600.6</ele>
        <time>2024-01-27T11:21:45Z</time>
      </trkpt>
      <trkpt lat="48.67168" lon="7.29175">
        <ele>593.8</ele>
        <time>2024-01-27T11:21:55Z</time>
      </trkpt>
      <trkpt lat="48.67156" lon="7.29166">
        <ele>588.7</ele>
        <time>2024-01-27T11:22:10Z</time>
      </trkpt>
      <trkpt lat="48.67158" lon="7.29162">
        <ele>589.9</ele>
        <time>2024-01-27T11:25:01Z</time>
      </trkpt>
      <trkpt lat="48.67171" lon="7.29183">
        <ele>596.9</ele>
        <time>2024-01-27T11:25:12Z</time>
      </trkpt>
      <trkpt lat="48.67179" lon="7.29208">
        <ele>604</ele>
        <time>2024-01-27T11:25:19Z</time>
      </trkpt>
      <trkpt lat="48.67184" lon="7.29221">
        <ele>607.7</ele>
        <time>2024-01-27T11:25:24Z</time>
      </trkpt>
      <trkpt lat="48.67198" lon="7.29239">
        <ele>614.8</ele>
        <time>2024-01-27T11:25:32Z</time>
      </trkpt>
      <trkpt lat="48.67198" lon="7.29244">
        <ele>614.9</ele>
        <time>2024-01-27T11:25:34Z</time>
      </trkpt>
      <trkpt lat="48.67187" lon="7.29255">
        <ele>611.8</ele>
        <time>2024-01-27T11:25:41Z</time>
      </trkpt>
      <trkpt lat="48.67174" lon="7.29231">
        <ele>607.2</ele>
        <time>2024-01-27T11:25:47Z</time>
      </trkpt>
      <trkpt lat="48.67167" lon="7.29228">
        <ele>605.8</ele>
        <time>2024-01-27T11:25:51Z</time>
      </trkpt>
      <trkpt lat="48.67169" lon="7.29258">
        <ele>602.2</ele>
        <time>2024-01-27T11:25:56Z</time>
      </trkpt>
      <trkpt lat="48.67169" lon="7.29274">
        <ele>600.4</ele>
        <time>2024-01-27T11:26:00Z</time>
      </trkpt>
      <trkpt lat="48.67153" lon="7.29251">
        <ele>597</ele>
        <time>2024-01-27T11:26:06Z</time>
      </trkpt>
      <trkpt lat="48.67142" lon="7.2923">
        <ele>594.2</ele>
        <time>2024-01-27T11:26:11Z</time>
      </trkpt>
      <trkpt lat="48.67127" lon="7.29212">
        <ele>590.5</ele>
        <time>2024-01-27T11:26:16Z</time>
      </trkpt>
      <trkpt lat="48.67115" lon="7.2919">
        <ele>586.6</ele>
        <time>2024-01-27T11:26:21Z</time>
      </trkpt>
      <trkpt lat="48.67112" lon="7.29179">
        <ele>585</ele>
        <time>2024-01-27T11:26:23Z</time>
      </trkpt>
      <trkpt lat="48.67108" lon="7.29156">
        <ele>582</ele>
        <time>2024-01-27T11:26:27Z</time>
      </trkpt>
      <trkpt lat="48.67109" lon="7.29138">
        <ele>580.2</ele>
        <time>2024-01-27T11:26:30Z</time>
      </trkpt>
      <trkpt lat="48.6711" lon="7.29128">
        <ele>579.2</ele>
        <time>2024-01-27T11:26:32Z</time>
      </trkpt>
      <trkpt lat="48.67111" lon="7.29115">
        <ele>577.8</ele>
        <time>2024-01-27T11:26:36Z</time>
      </trkpt>
      <trkpt lat="48.67108" lon="7.29112">
        <ele>577.1</ele>
        <time>2024-01-27T11:26:38Z</time>
      </trkpt>
      <trkpt lat="48.67103" lon="7.29114">
        <ele>576</ele>
        <time>2024-01-27T11:26:41Z</time>
      </trkpt>
      <trkpt lat="48.67086" lon="7.29132">
        <ele>572.1</ele>
        <time>2024-01-27T11:26:48Z</time>
      </trkpt>
      <trkpt lat="48.67073" lon="7.29139">
        <ele>569.1</ele>
        <time>2024-01-27T11:26:53Z</time>
      </trkpt>
      <trkpt lat="48.67061" lon="7.29119">
        <ele>564.5</ele>
        <time>2024-01-27T11:26:58Z</time>
      </trkpt>
      <trkpt lat="48.67056" lon="7.29091">
        <ele>561</ele>
        <time>2024-01-27T11:27:03Z</time>
      </trkpt>
      <trkpt lat="48.67057" lon="7.29061">
        <ele>557.3</ele>
        <time>2024-01-27T11:27:08Z</time>
      </trkpt>
      <trkpt lat="48.67061" lon="7.29027">
        <ele>553.4</ele>
        <time>2024-01-27T11:27:13Z</time>
      </trkpt>
      <trkpt lat="48.67063" lon="7.28998">
        <ele>550.5</ele>
        <time>2024-01-27T11:27:19Z</time>
      </trkpt>
      <trkpt lat="48.67045" lon="7.29003">
        <ele>546</ele>
        <time>2024-01-27T11:27:24Z</time>
      </trkpt>
      <trkpt lat="48.67027" lon="7.29">
        <ele>541.6</ele>
        <time>2024-01-27T11:27:29Z</time>
      </trkpt>
      <trkpt lat="48.67021" lon="7.28994">
        <ele>539.8</ele>
        <time>2024-01-27T11:27:30Z</time>
      </trkpt>
      <trkpt lat="48.67002" lon="7.28983">
        <ele>534.5</ele>
        <time>2024-01-27T11:27:37Z</time>
      </trkpt>
      <trkpt lat="48.66998" lon="7.2898">
        <ele>533.5</ele>
        <time>2024-01-27T11:27:38Z</time>
      </trkpt>
      <trkpt lat="48.66983" lon="7.28958">
        <ele>528.4</ele>
        <time>2024-01-27T11:27:44Z</time>
      </trkpt>
      <trkpt lat="48.66966" lon="7.28942">
        <ele>523.3</ele>
        <time>2024-01-27T11:27:49Z</time>
      </trkpt>
      <trkpt lat="48.66948" lon="7.28927">
        <ele>519.2</ele>
        <time>2024-01-27T11:27:55Z</time>
      </trkpt>
      <trkpt lat="48.66931" lon="7.28911">
        <ele>516.5</ele>
        <time>2024-01-27T11:28:00Z</time>
      </trkpt>
      <trkpt lat="48.66913" lon="7.28893">
        <ele>514.5</ele>
        <time>2024-01-27T11:28:05Z</time>
      </trkpt>
      <trkpt lat="48.66896" lon="7.28877">
        <ele>513.7</ele>
        <time>2024-01-27T11:28:11Z</time>
      </trkpt>
      <trkpt lat="48.66884" lon="7.28861">
        <ele>513.4</ele>
        <time>2024-01-27T11:28:18Z</time>
      </trkpt>
      <trkpt lat="48.6688" lon="7.28831">
        <ele>513.9</ele>
        <time>2024-01-27T11:28:27Z</time>
      </trkpt>
      <trkpt lat="48.66872" lon="7.28806">
        <ele>514.6</ele>
        <time>2024-01-27T11:28:36Z</time>
      </trkpt>
      <trkpt lat="48.66856" lon="7.2879">
        <ele>515.8</ele>
        <time>2024-01-27T11:28:45Z</time>
      </trkpt>
      <trkpt lat="48.66844" lon="7.28764">
        <ele>518.3</ele>
        <time>2024-01-27T11:28:54Z</time>
      </trkpt>
      <trkpt lat="48.66838" lon="7.28736">
        <ele>521.2</ele>
        <time>2024-01-27T11:29:04Z</time>
      </trkpt>
      <trkpt lat="48.66832" lon="7.2871">
        <ele>523.3</ele>
        <time>2024-01-27T11:29:13Z</time>
      </trkpt>
      <trkpt lat="48.66827" lon="7.28683">
        <ele>524.4</ele>
        <time>2024-01-27T11:29:21Z</time>
      </trkpt>
      <trkpt lat="48.66821" lon="7.28655">
        <ele>525</ele>
        <time>2024-01-27T11:29:29Z</time>
      </trkpt>
      <trkpt lat="48.66813" lon="7.28628">
        <ele>526</ele>
        <time>2024-01-27T11:29:37Z</time>
      </trkpt>
      <trkpt lat="48.66806" lon="7.28603">
        <ele>527</ele>
        <time>2024-01-27T11:29:43Z</time>
      </trkpt>
      <trkpt lat="48.66802" lon="7.28573">
        <ele>528.3</ele>
        <time>2024-01-27T11:29:51Z</time>
      </trkpt>
      <trkpt lat="48.66792" lon="7.28548">
        <ele>529.7</ele>
        <time>2024-01-27T11:29:59Z</time>
      </trkpt>
      <trkpt lat="48.66783" lon="7.28521">
        <ele>530.9</ele>
        <time>2024-01-27T11:30:06Z</time>
      </trkpt>
      <trkpt lat="48.66772" lon="7.28497">
        <ele>531.9</ele>
        <time>2024-01-27T11:30:12Z</time>
      </trkpt>
      <trkpt lat="48.6676" lon="7.28473">
        <ele>532.9</ele>
        <time>2024-01-27T11:30:18Z</time>
      </trkpt>
      <trkpt lat="48.66741" lon="7.28457">
        <ele>533.9</ele>
        <time>2024-01-27T11:30:25Z</time>
      </trkpt>
      <trkpt lat="48.66724" lon="7.28446">
        <ele>534.7</ele>
        <time>2024-01-27T11:30:32Z</time>
      </trkpt>
      <trkpt lat="48.66706" lon="7.28435">
        <ele>535.6</ele>
        <time>2024-01-27T11:30:40Z</time>
      </trkpt>
      <trkpt lat="48.66689" lon="7.28422">
        <ele>536.4</ele>
        <time>2024-01-27T11:30:49Z</time>
      </trkpt>
      <trkpt lat="48.6667" lon="7.28411">
        <ele>537.3</ele>
        <time>2024-01-27T11:30:57Z</time>
      </trkpt>
      <trkpt lat="48.6665" lon="7.28403">
        <ele>538.1</ele>
        <time>2024-01-27T11:31:05Z</time>
      </trkpt>
      <trkpt lat="48.66631" lon="7.28395">
        <ele>538.8</ele>
        <time>2024-01-27T11:31:12Z</time>
      </trkpt>
      <trkpt lat="48.66613" lon="7.28389">
        <ele>539.5</ele>
        <time>2024-01-27T11:31:19Z</time>
      </trkpt>
      <trkpt lat="48.66596" lon="7.2838">
        <ele>540.1</ele>
        <time>2024-01-27T11:31:25Z</time>
      </trkpt>
      <trkpt lat="48.66579" lon="7.28369">
        <ele>540.8</ele>
        <time>2024-01-27T11:31:33Z</time>
      </trkpt>
      <trkpt lat="48.6657" lon="7.28363">
        <ele>541.1</ele>
        <time>2024-01-27T11:31:38Z</time>
      </trkpt>
      <trkpt lat="48.66553" lon="7.28348">
        <ele>541.7</ele>
        <time>2024-01-27T11:31:45Z</time>
      </trkpt>
      <trkpt lat="48.66534" lon="7.28342">
        <ele>542.4</ele>
        <time>2024-01-27T11:31:53Z</time>
      </trkpt>
      <trkpt lat="48.66515" lon="7.28335">
        <ele>543.1</ele>
        <time>2024-01-27T11:32:00Z</time>
      </trkpt>
      <trkpt lat="48.66496" lon="7.28332">
        <ele>543.8</ele>
        <time>2024-01-27T11:32:07Z</time>
      </trkpt>
      <trkpt lat="48.66479" lon="7.28316">
        <ele>544.9</ele>
        <time>2024-01-27T11:32:15Z</time>
      </trkpt>
      <trkpt lat="48.66463" lon="7.28303">
        <ele>546.1</ele>
        <time>2024-01-27T11:32:22Z</time>
      </trkpt>
      <trkpt lat="48.6645" lon="7.28282">
        <ele>547.3</ele>
        <time>2024-01-27T11:32:28Z</time>
      </trkpt>
      <trkpt lat="48.66434" lon="7.2826">
        <ele>548.8</ele>
        <time>2024-01-27T11:32:34Z</time>
      </trkpt>
      <trkpt lat="48.66423" lon="7.28235">
        <ele>550.9</ele>
        <time>2024-01-27T11:32:43Z</time>
      </trkpt>
      <trkpt lat="48.66411" lon="7.28213">
        <ele>552.9</ele>
        <time>2024-01-27T11:32:51Z</time>
      </trkpt>
      <trkpt lat="48.66399" lon="7.28193">
        <ele>554.3</ele>
        <time>2024-01-27T11:32:58Z</time>
      </trkpt>
      <trkpt lat="48.66388" lon="7.28168">
        <ele>555.5</ele>
        <time>2024-01-27T11:33:06Z</time>
      </trkpt>
      <trkpt lat="48.66374" lon="7.2815">
        <ele>556.4</ele>
        <time>2024-01-27T11:33:13Z</time>
      </trkpt>
      <trkpt lat="48.66358" lon="7.28134">
        <ele>557.2</ele>
        <time>2024-01-27T11:33:20Z</time>
      </trkpt>
      <trkpt lat="48.66339" lon="7.28122">
        <ele>558.1</ele>
        <time>2024-01-27T11:33:26Z</time>
      </trkpt>
      <trkpt lat="48.66322" lon="7.28114">
        <ele>558.8</ele>
        <time>2024-01-27T11:33:33Z</time>
      </trkpt>
      <trkpt lat="48.66304" lon="7.28109">
        <ele>559.3</ele>
        <time>2024-01-27T11:33:40Z</time>
      </trkpt>
      <trkpt lat="48.66284" lon="7.28103">
        <ele>559.7</ele>
        <time>2024-01-27T11:33:48Z</time>
      </trkpt>
      <trkpt lat="48.66266" lon="7.28103">
        <ele>559.9</ele>
        <time>2024-01-27T11:33:55Z</time>
      </trkpt>
      <trkpt lat="48.66246" lon="7.28108">
        <ele>560.3</ele>
        <time>2024-01-27T11:34:02Z</time>
      </trkpt>
      <trkpt lat="48.66226" lon="7.28114">
        <ele>560.6</ele>
        <time>2024-01-27T11:34:10Z</time>
      </trkpt>
      <trkpt lat="48.66207" lon="7.2812">
        <ele>561</ele>
        <time>2024-01-27T11:34:16Z</time>
      </trkpt>
      <trkpt lat="48.66187" lon="7.28126">
        <ele>561.4</ele>
        <time>2024-01-27T11:34:24Z</time>
      </trkpt>
      <trkpt lat="48.66167" lon="7.2813">
        <ele>561.9</ele>
        <time>2024-01-27T11:34:32Z</time>
      </trkpt>
      <trkpt lat="48.66149" lon="7.28141">
        <ele>562.4</ele>
        <time>2024-01-27T11:34:40Z</time>
      </trkpt>
      <trkpt lat="48.66131" lon="7.28152">
        <ele>562.8</ele>
        <time>2024-01-27T11:34:48Z</time>
      </trkpt>
      <trkpt lat="48.66113" lon="7.28157">
        <ele>563.2</ele>
        <time>2024-01-27T11:34:56Z</time>
      </trkpt>
      <trkpt lat="48.66092" lon="7.2816">
        <ele>563.8</ele>
        <time>2024-01-27T11:35:05Z</time>
      </trkpt>
      <trkpt lat="48.66072" lon="7.28154">
        <ele>564.8</ele>
        <time>2024-01-27T11:35:11Z</time>
      </trkpt>
      <trkpt lat="48.6605" lon="7.28154">
        <ele>567.1</ele>
        <time>2024-01-27T11:35:20Z</time>
      </trkpt>
      <trkpt lat="48.66031" lon="7.2816">
        <ele>569.3</ele>
        <time>2024-01-27T11:35:27Z</time>
      </trkpt>
      <trkpt lat="48.66011" lon="7.28162">
        <ele>571.6</ele>
        <time>2024-01-27T11:35:36Z</time>
      </trkpt>
      <trkpt lat="48.65993" lon="7.2816">
        <ele>573.7</ele>
        <time>2024-01-27T11:35:42Z</time>
      </trkpt>
      <trkpt lat="48.65973" lon="7.2816">
        <ele>576.2</ele>
        <time>2024-01-27T11:35:50Z</time>
      </trkpt>
      <trkpt lat="48.65954" lon="7.28163">
        <ele>578.6</ele>
        <time>2024-01-27T11:35:59Z</time>
      </trkpt>
      <trkpt lat="48.65936" lon="7.28166">
        <ele>580.8</ele>
        <time>2024-01-27T11:36:07Z</time>
      </trkpt>
      <trkpt lat="48.65917" lon="7.28175">
        <ele>582.9</ele>
        <time>2024-01-27T11:36:16Z</time>
      </trkpt>
      <trkpt lat="48.65901" lon="7.28188">
        <ele>585</ele>
        <time>2024-01-27T11:36:28Z</time>
      </trkpt>
      <trkpt lat="48.65882" lon="7.28199">
        <ele>587.7</ele>
        <time>2024-01-27T11:36:40Z</time>
      </trkpt>
      <trkpt lat="48.65863" lon="7.28208">
        <ele>590.4</ele>
        <time>2024-01-27T11:36:49Z</time>
      </trkpt>
      <trkpt lat="48.65848" lon="7.28224">
        <ele>593</ele>
        <time>2024-01-27T11:36:58Z</time>
      </trkpt>
      <trkpt lat="48.65833" lon="7.2824">
        <ele>595.5</ele>
        <time>2024-01-27T11:37:09Z</time>
      </trkpt>
      <trkpt lat="48.65819" lon="7.28259">
        <ele>598.1</ele>
        <time>2024-01-27T11:37:21Z</time>
      </trkpt>
      <trkpt lat="48.65811" lon="7.2827">
        <ele>599.5</ele>
        <time>2024-01-27T11:37:29Z</time>
      </trkpt>
      <trkpt lat="48.65807" lon="7.28274">
        <ele>600.1</ele>
        <time>2024-01-27T11:37:32Z</time>
      </trkpt>
      <trkpt lat="48.6579" lon="7.28288">
        <ele>602.7</ele>
        <time>2024-01-27T11:37:41Z</time>
      </trkpt>
      <trkpt lat="48.65776" lon="7.28307">
        <ele>605.4</ele>
        <time>2024-01-27T11:37:54Z</time>
      </trkpt>
      <trkpt lat="48.65761" lon="7.28323">
        <ele>608</ele>
        <time>2024-01-27T11:38:03Z</time>
      </trkpt>
      <trkpt lat="48.65748" lon="7.28343">
        <ele>610.6</ele>
        <time>2024-01-27T11:38:14Z</time>
      </trkpt>
      <trkpt lat="48.65732" lon="7.28361">
        <ele>613.4</ele>
        <time>2024-01-27T11:38:25Z</time>
      </trkpt>
      <trkpt lat="48.65717" lon="7.28377">
        <ele>616.1</ele>
        <time>2024-01-27T11:38:34Z</time>
      </trkpt>
      <trkpt lat="48.65703" lon="7.28395">
        <ele>618.8</ele>
        <time>2024-01-27T11:38:42Z</time>
      </trkpt>
      <trkpt lat="48.65687" lon="7.28413">
        <ele>621.8</ele>
        <time>2024-01-27T11:38:51Z</time>
      </trkpt>
      <trkpt lat="48.6567" lon="7.2843">
        <ele>624.6</ele>
        <time>2024-01-27T11:39:01Z</time>
      </trkpt>
      <trkpt lat="48.65656" lon="7.28447">
        <ele>626.9</ele>
        <time>2024-01-27T11:39:09Z</time>
      </trkpt>
      <trkpt lat="48.6564" lon="7.28463">
        <ele>628.4</ele>
        <time>2024-01-27T11:39:18Z</time>
      </trkpt>
      <trkpt lat="48.65627" lon="7.28485">
        <ele>630</ele>
        <time>2024-01-27T11:39:29Z</time>
      </trkpt>
      <trkpt lat="48.65611" lon="7.28501">
        <ele>631.9</ele>
        <time>2024-01-27T11:39:39Z</time>
      </trkpt>
      <trkpt lat="48.65596" lon="7.28518">
        <ele>634.1</ele>
        <time>2024-01-27T11:39:48Z</time>
      </trkpt>
      <trkpt lat="48.65581" lon="7.28535">
        <ele>636.2</ele>
        <time>2024-01-27T11:39:57Z</time>
      </trkpt>
      <trkpt lat="48.65567" lon="7.28551">
        <ele>637.9</ele>
        <time>2024-01-27T11:40:03Z</time>
      </trkpt>
      <trkpt lat="48.65552" lon="7.28568">
        <ele>639.3</ele>
        <time>2024-01-27T11:40:10Z</time>
      </trkpt>
      <trkpt lat="48.65534" lon="7.28581">
        <ele>640.4</ele>
        <time>2024-01-27T11:40:19Z</time>
      </trkpt>
      <trkpt lat="48.65517" lon="7.28593">
        <ele>641.3</ele>
        <time>2024-01-27T11:40:27Z</time>
      </trkpt>
      <trkpt lat="48.65499" lon="7.28601">
        <ele>642.9</ele>
        <time>2024-01-27T11:40:35Z</time>
      </trkpt>
      <trkpt lat="48.65483" lon="7.28617">
        <ele>644.9</ele>
        <time>2024-01-27T11:40:43Z</time>
      </trkpt>
      <trkpt lat="48.65467" lon="7.28629">
        <ele>646.7</ele>
        <time>2024-01-27T11:40:51Z</time>
      </trkpt>
      <trkpt lat="48.65449" lon="7.28637">
        <ele>648.3</ele>
        <time>2024-01-27T11:40:59Z</time>
      </trkpt>
      <trkpt lat="48.65433" lon="7.28648">
        <ele>649.8</ele>
        <time>2024-01-27T11:41:07Z</time>
      </trkpt>
      <trkpt lat="48.65415" lon="7.28663">
        <ele>651.4</ele>
        <time>2024-01-27T11:41:15Z</time>
      </trkpt>
      <trkpt lat="48.65396" lon="7.28672">
        <ele>652.8</ele>
        <time>2024-01-27T11:41:22Z</time>
      </trkpt>
      <trkpt lat="48.65379" lon="7.28681">
        <ele>654.1</ele>
        <time>2024-01-27T11:41:29Z</time>
      </trkpt>
      <trkpt lat="48.65361" lon="7.28699">
        <ele>655.4</ele>
        <time>2024-01-27T11:41:35Z</time>
      </trkpt>
      <trkpt lat="48.65345" lon="7.28714">
        <ele>656.5</ele>
        <time>2024-01-27T11:41:42Z</time>
      </trkpt>
      <trkpt lat="48.65328" lon="7.28727">
        <ele>657.4</ele>
        <time>2024-01-27T11:41:48Z</time>
      </trkpt>
      <trkpt lat="48.65312" lon="7.28744">
        <ele>658.1</ele>
        <time>2024-01-27T11:41:55Z</time>
      </trkpt>
      <trkpt lat="48.65296" lon="7.28757">
        <ele>658.7</ele>
        <time>2024-01-27T11:42:01Z</time>
      </trkpt>
      <trkpt lat="48.6528" lon="7.28772">
        <ele>659.4</ele>
        <time>2024-01-27T11:42:07Z</time>
      </trkpt>
      <trkpt lat="48.65265" lon="7.28786">
        <ele>660.5</ele>
        <time>2024-01-27T11:42:15Z</time>
      </trkpt>
      <trkpt lat="48.6525" lon="7.28804">
        <ele>662</ele>
        <time>2024-01-27T11:42:23Z</time>
      </trkpt>
      <trkpt lat="48.65235" lon="7.28826">
        <ele>663.6</ele>
        <time>2024-01-27T11:42:29Z</time>
      </trkpt>
      <trkpt lat="48.65223" lon="7.28848">
        <ele>664.9</ele>
        <time>2024-01-27T11:42:34Z</time>
      </trkpt>
      <trkpt lat="48.65215" lon="7.28876">
        <ele>666.1</ele>
        <time>2024-01-27T11:42:41Z</time>
      </trkpt>
      <trkpt lat="48.65213" lon="7.28907">
        <ele>667</ele>
        <time>2024-01-27T11:42:48Z</time>
      </trkpt>
      <trkpt lat="48.65205" lon="7.28931">
        <ele>667.8</ele>
        <time>2024-01-27T11:42:55Z</time>
      </trkpt>
      <trkpt lat="48.6519" lon="7.28947">
        <ele>669.4</ele>
        <time>2024-01-27T11:43:03Z</time>
      </trkpt>
      <trkpt lat="48.65184" lon="7.28952">
        <ele>670</ele>
        <time>2024-01-27T11:43:06Z</time>
      </trkpt>
      <trkpt lat="48.6518" lon="7.28949">
        <ele>670.4</ele>
        <time>2024-01-27T11:43:08Z</time>
      </trkpt>
    </trkseg>
  </trk>
</gpx>